Time;durP1;ratioP1;P1;durP2;ratioP2;P2;SDS_P1;SDS_P2;PMS_P1;PMS_P2;Temp;Humidity;BMP_temperature;BMP_pressure;BME280_temperature;BME280_humidity;BME280_pressure;Samples;Min_cycle;Max_cycle;Signal;HPM_P1;HPM_P2
2024/04/06 00:00:28;;;;;;;32.43;31.23;;;21.20;80.50;;;;;;5082169;28;20787;-66
2024/04/06 00:02:55;;;;;;;24.03;23.13;;;21.20;80.60;;;;;;5084394;28;20442;-66
2024/04/06 00:05:20;;;;;;;23.60;22.70;;;21.20;80.60;;;;;;5081154;28;20442;-65
2024/04/06 00:07:47;;;;;;;23.10;22.20;;;21.20;80.70;;;;;;5084243;28;20431;-66
2024/04/06 00:10:14;;;;;;;23.83;22.93;;;21.20;80.60;;;;;;5085485;28;20246;-66
2024/04/06 00:12:41;;;;;;;24.57;23.57;;;21.20;80.60;;;;;;5084451;28;20442;-66
2024/04/06 00:15:07;;;;;;;23.70;22.80;;;21.20;80.60;;;;;;5081334;28;20479;-66
2024/04/06 00:17:34;;;;;;;24.33;23.43;;;21.20;81.10;;;;;;5082060;28;20446;-66
2024/04/06 00:20:00;;;;;;;23.37;22.47;;;21.20;80.70;;;;;;5085038;28;20446;-66
2024/04/06 00:22:26;;;;;;;23.90;23.03;;;21.20;80.90;;;;;;5085496;28;20446;-66
2024/04/06 00:24:52;;;;;;;23.67;22.77;;;21.20;80.90;;;;;;5082276;28;20255;-66
2024/04/06 00:27:20;;;;;;;23.50;22.70;;;21.20;80.80;;;;;;5081791;28;20436;-66
2024/04/06 00:29:46;;;;;;;23.60;22.50;;;21.20;80.70;;;;;;5083331;28;20780;-66
2024/04/06 00:32:13;;;;;;;24.57;23.67;;;21.20;80.90;;;;;;5084586;28;20445;-66
2024/04/06 00:34:38;;;;;;;22.87;22.07;;;21.20;81.00;;;;;;5084366;28;20220;-66
2024/04/06 00:37:07;;;;;;;24.03;23.17;;;21.20;81.10;;;;;;5080897;28;20525;-66
2024/04/06 00:39:32;;;;;;;24.10;23.20;;;21.20;81.10;;;;;;5081315;28;20737;-66
2024/04/06 00:41:59;;;;;;;24.10;23.20;;;21.20;81.10;;;;;;5084319;28;20434;-66
2024/04/06 00:44:26;;;;;;;24.77;23.77;;;21.20;81.20;;;;;;5085133;28;20590;-66
2024/04/06 00:46:53;;;;;;;25.33;24.33;;;21.20;81.10;;;;;;5082441;28;20995;-66
2024/04/06 00:49:19;;;;;;;24.40;23.50;;;21.20;81.20;;;;;;5081479;28;20458;-66
2024/04/06 00:51:46;;;;;;;24.10;23.10;;;21.20;81.20;;;;;;5081997;28;21151;-66
2024/04/06 00:54:11;;;;;;;24.17;23.23;;;21.20;81.30;;;;;;5084784;28;20225;-66
2024/04/06 00:56:38;;;;;;;24.47;23.50;;;21.10;81.20;;;;;;5084071;28;20479;-66
2024/04/06 00:59:04;;;;;;;24.50;23.60;;;21.10;81.20;;;;;;5084744;28;20201;-66
2024/04/06 01:01:32;;;;;;;24.70;23.80;;;21.20;81.40;;;;;;5082573;28;20438;-66
2024/04/06 01:03:58;;;;;;;24.57;23.67;;;21.20;81.40;;;;;;5076807;28;20486;-66
2024/04/06 01:06:25;;;;;;;25.37;24.37;;;21.20;81.40;;;;;;5084661;28;20837;-66
2024/04/06 01:08:51;;;;;;;24.97;23.97;;;21.10;81.30;;;;;;5082321;28;20203;-67
2024/04/06 01:11:18;;;;;;;24.53;23.53;;;21.10;81.40;;;;;;5080795;28;20439;-66
2024/04/06 01:13:43;;;;;;;24.00;23.10;;;21.20;81.50;;;;;;5081209;28;20596;-66
2024/04/06 01:16:10;;;;;;;25.07;24.17;;;21.10;81.40;;;;;;5084235;28;20478;-66
2024/04/06 01:18:37;;;;;;;24.03;23.13;;;21.10;81.50;;;;;;5084243;28;20209;-67
2024/04/06 01:21:05;;;;;;;25.00;24.10;;;21.10;81.40;;;;;;5080389;28;20546;-66
2024/04/06 01:23:32;;;;;;;24.20;23.30;;;21.10;81.50;;;;;;5079981;28;20542;-67
2024/04/06 01:26:01;;;;;;;24.63;23.73;;;21.10;81.60;;;;;;5083809;28;20437;-66
2024/04/06 01:28:27;;;;;;;23.90;23.00;;;21.10;81.70;;;;;;5084406;28;20446;-66
2024/04/06 01:30:54;;;;;;;24.70;23.80;;;21.10;81.70;;;;;;5081241;28;20948;-67
2024/04/06 01:33:20;;;;;;;25.60;24.60;;;21.10;81.80;;;;;;5079805;28;20232;-66
2024/04/06 01:35:46;;;;;;;24.90;24.00;;;21.10;81.80;;;;;;5080625;28;20479;-66
2024/04/06 01:38:12;;;;;;;24.07;23.20;;;21.10;81.90;;;;;;5084012;28;20197;-67
2024/04/06 01:40:39;;;;;;;24.40;23.50;;;21.10;81.90;;;;;;5083297;28;20435;-66
2024/04/06 01:43:06;;;;;;;23.90;23.10;;;21.10;82.00;;;;;;5074740;28;20231;-67
2024/04/06 01:45:33;;;;;;;23.90;23.00;;;21.00;81.80;;;;;;5084181;28;20474;-66
2024/04/06 01:47:59;;;;;;;24.10;23.20;;;21.10;82.10;;;;;;5081636;28;20522;-66
2024/04/06 01:50:26;;;;;;;23.80;22.90;;;21.00;82.10;;;;;;5074117;28;20538;-66
2024/04/06 01:52:52;;;;;;;33.30;32.10;;;21.00;82.00;;;;;;5081592;28;20227;-66
2024/04/06 01:55:18;;;;;;;33.50;32.30;;;21.10;82.10;;;;;;5080127;28;20447;-66
2024/04/06 01:57:44;;;;;;;24.30;23.40;;;21.00;81.90;;;;;;5080969;28;20204;-66
2024/04/06 02:00:13;;;;;;;24.37;23.47;;;21.10;82.00;;;;;;5082547;28;20435;-66
2024/04/06 02:02:39;;;;;;;24.97;24.03;;;21.00;82.00;;;;;;5080204;28;20233;-66
2024/04/06 02:05:06;;;;;;;23.80;22.90;;;21.10;82.10;;;;;;5083429;28;20462;-66
2024/04/06 02:07:32;;;;;;;24.60;23.70;;;21.10;82.20;;;;;;5083647;28;20200;-66
2024/04/06 02:09:59;;;;;;;24.53;23.63;;;21.10;82.10;;;;;;5079730;28;20439;-66
2024/04/06 02:12:24;;;;;;;24.10;23.20;;;21.10;82.00;;;;;;5080048;28;20197;-66
2024/04/06 02:14:51;;;;;;;24.07;23.20;;;21.10;82.10;;;;;;5081397;28;20466;-66
2024/04/06 02:17:18;;;;;;;23.50;22.70;;;21.10;82.00;;;;;;5083348;28;20212;-66
2024/04/06 02:19:45;;;;;;;25.20;24.30;;;21.10;82.10;;;;;;5082096;28;20445;-66
2024/04/06 02:22:10;;;;;;;24.00;23.10;;;21.10;82.10;;;;;;5075917;28;20443;-66
2024/04/06 02:24:37;;;;;;;23.27;22.47;;;21.10;82.10;;;;;;5079876;28;20459;-67
2024/04/06 02:27:03;;;;;;;23.83;22.93;;;21.00;82.20;;;;;;5082944;28;20196;-66
2024/04/06 02:29:31;;;;;;;23.30;22.50;;;21.10;82.30;;;;;;5082955;28;20434;-66
2024/04/06 02:31:57;;;;;;;23.40;22.50;;;21.10;82.30;;;;;;5079976;28;20442;-66
2024/04/06 02:34:26;;;;;;;25.00;24.00;;;21.00;82.20;;;;;;5073796;28;20461;-66
2024/04/06 02:36:52;;;;;;;24.53;23.63;;;21.00;82.20;;;;;;5081256;28;20482;-66
2024/04/06 02:39:18;;;;;;;23.63;22.73;;;21.00;82.20;;;;;;5083256;28;20814;-66
2024/04/06 02:41:44;;;;;;;24.57;23.63;;;21.00;82.20;;;;;;5081388;28;20441;-66
2024/04/06 02:44:11;;;;;;;23.40;22.50;;;21.00;82.40;;;;;;5079661;28;20478;-66
2024/04/06 02:46:36;;;;;;;24.97;23.70;;;21.00;82.30;;;;;;5079635;28;20189;-66
2024/04/06 02:49:03;;;;;;;24.57;23.67;;;21.00;82.30;;;;;;5082505;28;20441;-66
2024/04/06 02:51:30;;;;;;;24.10;23.20;;;21.00;82.40;;;;;;5082148;28;20203;-66
2024/04/06 02:53:57;;;;;;;24.87;23.97;;;21.00;82.50;;;;;;5080567;28;20745;-66
2024/04/06 02:56:23;;;;;;;23.97;23.07;;;21.00;82.60;;;;;;5079541;28;20987;-66
2024/04/06 02:58:49;;;;;;;23.90;23.00;;;21.00;82.60;;;;;;5081095;28;20500;-66
2024/04/06 03:01:15;;;;;;;25.20;24.30;;;21.00;82.50;;;;;;5086534;28;20196;-66
2024/04/06 03:03:42;;;;;;;24.37;23.47;;;21.00;82.60;;;;;;5086247;28;20473;-66
2024/04/06 03:06:08;;;;;;;25.47;24.57;;;21.00;82.60;;;;;;5083514;28;20198;-65
2024/04/06 03:08:36;;;;;;;24.73;23.80;;;21.00;82.60;;;;;;5090686;28;20446;-65
2024/04/06 03:11:02;;;;;;;24.40;23.50;;;21.00;82.60;;;;;;5083351;28;20209;-66
2024/04/06 03:13:29;;;;;;;24.63;23.67;;;21.00;82.50;;;;;;5082962;28;20512;-66
2024/04/06 03:15:55;;;;;;;25.60;24.70;;;21.00;82.50;;;;;;5089983;28;20567;-66
2024/04/06 03:18:21;;;;;;;24.87;23.97;;;20.90;82.40;;;;;;5083109;28;20436;-66
2024/04/06 03:20:47;;;;;;;24.30;23.40;;;21.00;82.50;;;;;;5083240;28;20200;-66
2024/04/06 03:23:14;;;;;;;25.27;24.33;;;21.00;82.60;;;;;;5086388;28;20463;-66
2024/04/06 03:25:42;;;;;;;24.80;23.90;;;21.00;82.50;;;;;;5073980;28;20235;-66
2024/04/06 03:28:09;;;;;;;25.50;24.60;;;20.90;82.40;;;;;;5082967;28;21233;-66
2024/04/06 03:30:35;;;;;;;25.20;24.30;;;20.90;82.30;;;;;;5082633;28;21125;-66
2024/04/06 03:33:01;;;;;;;24.70;23.80;;;20.90;82.40;;;;;;5085233;28;20523;-66
2024/04/06 03:35:27;;;;;;;25.33;24.33;;;20.90;82.30;;;;;;5085500;28;20203;-66
2024/04/06 03:37:54;;;;;;;24.60;23.70;;;20.90;82.40;;;;;;5082462;28;20452;-66
2024/04/06 03:40:20;;;;;;;24.70;23.70;;;20.90;82.20;;;;;;5085872;28;20244;-66
2024/04/06 03:42:59;;;;;;;23.80;22.80;;;20.90;82.30;;;;;;5085469;28;20442;-66
2024/04/06 03:45:25;;;;;;;26.00;25.00;;;20.90;82.40;;;;;;5082786;28;20446;-66
2024/04/06 03:47:52;;;;;;;24.70;23.70;;;21.00;82.50;;;;;;5089547;28;20426;-66
2024/04/06 03:50:18;;;;;;;24.50;23.60;;;20.90;82.40;;;;;;5082218;28;20467;-66
2024/04/06 03:52:45;;;;;;;24.47;23.57;;;20.90;82.30;;;;;;5082586;28;20446;-66
2024/04/06 03:55:11;;;;;;;25.20;24.20;;;20.90;82.40;;;;;;5085858;28;21111;-66
2024/04/06 03:57:38;;;;;;;24.27;23.37;;;21.00;82.60;;;;;;5085816;28;20473;-66
2024/04/06 04:00:08;;;;;;;25.63;24.70;;;20.90;82.40;;;;;;5077535;28;20205;-66
2024/04/06 04:02:37;;;;;;;26.00;25.10;;;21.00;82.60;;;;;;5086085;28;20470;-66
2024/04/06 04:05:05;;;;;;;33.00;31.70;;;21.00;82.60;;;;;;5099174;22;20544;-69
2024/04/06 04:07:32;;;;;;;27.13;26.13;;;20.90;82.60;;;;;;5073821;28;20458;-69
2024/04/06 04:10:01;;;;;;;24.90;24.00;;;20.90;82.60;;;;;;5072930;28;20505;-69
2024/04/06 04:12:27;;;;;;;26.07;25.17;;;20.90;82.60;;;;;;5071801;28;20447;-69
2024/04/06 04:14:53;;;;;;;27.23;26.23;;;20.90;82.60;;;;;;5065264;28;20468;-69
2024/04/06 04:17:20;;;;;;;25.80;24.70;;;21.00;82.80;;;;;;5065257;28;20482;-69
2024/04/06 04:19:47;;;;;;;25.83;24.83;;;21.00;83.10;;;;;;5064580;28;20825;-69
2024/04/06 04:22:13;;;;;;;27.40;26.20;;;20.90;83.70;;;;;;5061551;28;20443;-69
2024/04/06 04:24:39;;;;;;;26.50;25.50;;;21.00;84.30;;;;;;5063553;28;20973;-69
2024/04/06 04:27:06;;;;;;;27.00;26.00;;;20.90;84.00;;;;;;5063896;28;20595;-69
2024/04/06 04:29:32;;;;;;;26.70;25.67;;;20.90;83.80;;;;;;5065035;28;20447;-69
2024/04/06 04:31:58;;;;;;;27.00;25.90;;;20.90;83.70;;;;;;5063138;28;20201;-69
2024/04/06 04:34:26;;;;;;;27.23;26.17;;;20.90;83.70;;;;;;5064689;28;20996;-69
2024/04/06 04:36:52;;;;;;;25.30;24.30;;;20.90;83.80;;;;;;5063821;28;20228;-69
2024/04/06 04:39:18;;;;;;;26.23;25.23;;;20.90;84.00;;;;;;5061409;28;20444;-69
2024/04/06 04:41:44;;;;;;;25.87;24.67;;;20.90;84.10;;;;;;5061026;28;20198;-69
2024/04/06 04:44:11;;;;;;;26.50;25.50;;;20.90;84.10;;;;;;5064471;28;20455;-69
2024/04/06 04:46:37;;;;;;;25.80;24.80;;;20.90;84.10;;;;;;5056330;28;20194;-69
2024/04/06 04:49:03;;;;;;;26.07;25.07;;;20.90;84.00;;;;;;5063761;28;20443;-69
2024/04/06 04:51:30;;;;;;;27.43;26.43;;;20.90;84.00;;;;;;5064161;28;20197;-69
2024/04/06 04:53:57;;;;;;;27.17;26.10;;;20.90;83.90;;;;;;5063032;28;20463;-69
2024/04/06 04:56:23;;;;;;;26.70;25.70;;;20.90;83.60;;;;;;5060403;28;20895;-69
2024/04/06 04:58:50;;;;;;;30.97;29.87;;;20.90;83.50;;;;;;5061356;28;20534;-69
2024/04/06 05:01:16;;;;;;;30.80;29.70;;;21.00;83.40;;;;;;5064076;28;20205;-69
2024/04/06 05:03:43;;;;;;;33.20;31.80;;;21.00;83.50;;;;;;5064184;28;20493;-69
2024/04/06 05:06:09;;;;;;;28.87;27.67;;;21.00;83.70;;;;;;5060708;28;20432;-69
2024/04/06 05:08:37;;;;;;;27.00;26.00;;;21.00;83.70;;;;;;5060968;28;20448;-69
2024/04/06 05:11:03;;;;;;;27.10;26.10;;;21.00;83.70;;;;;;5062567;28;20440;-69
2024/04/06 05:13:29;;;;;;;29.37;28.17;;;21.00;83.70;;;;;;5064148;28;20520;-69
2024/04/06 05:15:55;;;;;;;26.73;25.63;;;21.00;83.50;;;;;;5062243;28;20446;-69
2024/04/06 05:18:22;;;;;;;25.63;24.63;;;21.10;83.60;;;;;;5045396;28;20444;-69
2024/04/06 05:20:49;;;;;;;26.30;25.20;;;21.00;83.50;;;;;;5060318;28;20202;-69
2024/04/06 05:23:16;;;;;;;27.03;25.93;;;21.10;83.60;;;;;;5053035;28;20502;-69
2024/04/06 05:25:43;;;;;;;26.40;25.30;;;21.10;83.50;;;;;;5060430;28;20945;-69
2024/04/06 05:28:10;;;;;;;25.90;24.90;;;21.10;83.50;;;;;;5060469;28;20470;-69
2024/04/06 05:30:36;;;;;;;26.50;25.40;;;21.10;83.70;;;;;;5060024;28;20444;-68
2024/04/06 05:33:02;;;;;;;26.93;25.83;;;21.10;83.50;;;;;;5062416;28;20440;-67
2024/04/06 05:35:28;;;;;;;28.10;26.80;;;21.10;83.60;;;;;;5063722;28;20233;-68
2024/04/06 05:37:55;;;;;;;28.70;27.50;;;21.10;83.70;;;;;;5062830;28;20474;-67
2024/04/06 05:40:21;;;;;;;27.60;26.50;;;21.10;83.90;;;;;;5059197;28;20233;-68
2024/04/06 05:42:49;;;;;;;26.60;25.50;;;21.10;83.90;;;;;;5060373;28;20468;-67
2024/04/06 05:45:15;;;;;;;26.87;25.77;;;21.10;83.80;;;;;;5052108;28;20214;-67
2024/04/06 05:47:41;;;;;;;27.23;25.80;;;21.10;83.80;;;;;;5060176;28;20443;-67
2024/04/06 05:50:07;;;;;;;27.73;26.63;;;21.10;83.50;;;;;;5064252;28;20212;-68
2024/04/06 05:52:34;;;;;;;27.77;26.77;;;21.10;83.40;;;;;;5060162;28;20940;-68
2024/04/06 05:55:00;;;;;;;27.60;26.50;;;21.10;83.30;;;;;;5061258;28;20233;-68
2024/04/06 05:57:26;;;;;;;27.50;26.40;;;21.10;83.20;;;;;;5058403;28;20484;-68
2024/04/06 05:59:54;;;;;;;27.53;26.40;;;21.10;83.50;;;;;;5060157;28;20448;-67
2024/04/06 06:02:20;;;;;;;29.00;27.70;;;21.20;83.20;;;;;;5063479;28;20428;-68
2024/04/06 06:04:46;;;;;;;30.67;29.17;;;21.20;83.30;;;;;;5063057;28;20978;-63
2024/04/06 06:07:13;;;;;;;25.50;24.60;;;21.20;84.50;;;;;;5059515;28;20528;-68
2024/04/06 06:09:39;;;;;;;26.10;25.00;;;21.30;85.20;;;;;;5059571;28;20201;-70
2024/04/06 06:12:06;;;;;;;30.53;29.37;;;21.40;86.20;;;;;;5061751;28;20958;-69
2024/04/06 06:14:32;;;;;;;29.40;28.10;;;21.50;86.90;;;;;;5063190;28;20221;-66
2024/04/06 06:17:00;;;;;;;27.67;26.47;;;21.50;86.20;;;;;;5052385;28;20498;-67
2024/04/06 06:19:26;;;;;;;28.40;26.80;;;21.50;86.40;;;;;;5064465;28;20436;-67
2024/04/06 06:21:53;;;;;;;27.10;26.07;;;21.50;85.80;;;;;;5061674;28;20505;-68
2024/04/06 06:24:18;;;;;;;27.30;26.30;;;21.60;84.80;;;;;;5064964;28;20220;-67
2024/04/06 06:26:45;;;;;;;26.90;25.73;;;21.60;83.90;;;;;;5064753;28;20443;-68
2024/04/06 06:29:11;;;;;;;26.00;25.00;;;21.60;83.30;;;;;;5061833;28;20212;-67
2024/04/06 06:31:37;;;;;;;27.40;26.30;;;21.60;82.90;;;;;;5061086;28;20444;-68
2024/04/06 06:34:04;;;;;;;26.30;25.30;;;21.60;82.50;;;;;;5063299;28;20221;-67
2024/04/06 06:36:31;;;;;;;26.20;25.13;;;21.60;82.10;;;;;;5068727;28;20578;-68
2024/04/06 06:38:57;;;;;;;25.80;24.90;;;21.60;81.90;;;;;;5067702;28;20454;-67
2024/04/06 06:41:24;;;;;;;26.23;25.23;;;21.60;81.60;;;;;;5064417;28;20440;-68
2024/04/06 06:43:50;;;;;;;26.20;25.20;;;21.70;81.30;;;;;;5064951;28;20222;-67
2024/04/06 06:46:16;;;;;;;26.87;25.87;;;21.60;80.90;;;;;;5067979;28;20443;-67
2024/04/06 06:48:42;;;;;;;27.83;26.53;;;21.60;80.60;;;;;;5068448;28;20748;-68
2024/04/06 06:51:10;;;;;;;26.00;25.00;;;21.60;80.40;;;;;;5066397;28;20530;-68
2024/04/06 06:53:36;;;;;;;26.53;25.37;;;21.60;80.20;;;;;;5066950;28;20650;-68
2024/04/06 06:56:03;;;;;;;26.73;25.73;;;21.70;80.20;;;;;;5067835;28;20440;-67
2024/04/06 06:58:29;;;;;;;27.20;26.10;;;21.70;79.90;;;;;;5064149;28;20221;-68
2024/04/06 07:00:55;;;;;;;22.90;22.10;;;21.70;79.70;;;;;;5063665;28;20439;-70
2024/04/06 07:03:21;;;;;;;27.00;25.83;;;21.70;80.00;;;;;;5051828;28;20197;-71
2024/04/06 07:05:48;;;;;;;25.73;24.63;;;21.60;81.30;;;;;;5066603;28;20443;-71
2024/04/06 07:08:15;;;;;;;26.23;25.13;;;21.60;81.60;;;;;;5063641;28;20229;-72
2024/04/06 07:10:41;;;;;;;30.90;29.60;;;21.60;80.90;;;;;;5062159;28;20482;-71
2024/04/06 07:13:07;;;;;;;31.63;30.43;;;21.60;80.60;;;;;;5057272;28;20443;-72
2024/04/06 07:15:34;;;;;;;29.53;28.40;;;21.60;80.50;;;;;;5062980;28;20447;-70
2024/04/06 07:18:00;;;;;;;29.03;27.73;;;21.60;80.50;;;;;;5063718;28;20229;-68
2024/04/06 07:20:27;;;;;;;30.57;29.37;;;21.70;80.40;;;;;;5062843;28;20435;-71
2024/04/06 07:22:53;;;;;;;33.10;31.60;;;21.70;80.60;;;;;;5062630;28;20451;-68
2024/04/06 07:25:21;;;;;;;32.77;31.00;;;21.70;80.60;;;;;;5054509;28;20535;-72
2024/04/06 07:27:47;;;;;;;32.03;30.00;;;21.70;80.20;;;;;;5062827;28;20432;-70
2024/04/06 07:30:14;;;;;;;31.73;30.07;;;21.70;80.90;;;;;;5066787;28;20473;-72
2024/04/06 07:32:40;;;;;;;31.73;30.40;;;21.70;79.40;;;;;;5062531;28;20276;-69
2024/04/06 07:35:11;;;;;;;29.43;28.07;;;21.70;78.80;;;;;;5064081;28;20552;-71
2024/04/06 07:37:36;;;;;;;29.93;28.53;;;21.70;78.20;;;;;;5065980;28;20595;-70
2024/04/06 07:40:04;;;;;;;27.00;25.90;;;21.70;78.30;;;;;;5063772;28;20446;-71
2024/04/06 07:42:31;;;;;;;28.00;26.97;;;21.70;78.10;;;;;;5060079;28;20198;-72
2024/04/06 07:44:58;;;;;;;32.80;31.50;;;21.80;77.70;;;;;;5062621;28;20471;-75
2024/04/06 07:47:25;;;;;;;26.13;24.93;;;21.80;77.50;;;;;;5065887;28;20432;-69
2024/04/06 07:49:52;;;;;;;26.63;25.43;;;21.80;77.00;;;;;;5064846;28;21018;-69
2024/04/06 07:52:19;;;;;;;28.03;25.83;;;21.80;77.20;;;;;;5062631;28;20923;-68
2024/04/06 07:54:46;;;;;;;31.00;29.50;;;21.80;76.90;;;;;;5062154;28;20460;-66
2024/04/06 07:57:11;;;;;;;29.00;27.90;;;21.80;76.50;;;;;;5064360;28;21013;-67
2024/04/06 07:59:39;;;;;;;26.83;25.73;;;21.80;76.00;;;;;;5064642;28;20440;-66
2024/04/06 08:02:06;;;;;;;24.40;23.40;;;21.70;75.80;;;;;;5063410;28;20205;-72
2024/04/06 08:04:32;;;;;;;26.23;24.80;;;21.80;77.50;;;;;;5065337;28;20455;-71
2024/04/06 08:06:58;;;;;;;30.40;29.10;;;21.80;76.50;;;;;;5064982;28;20444;-67
2024/04/06 08:09:25;;;;;;;27.07;25.97;;;21.80;75.80;;;;;;5052331;28;20450;-70
2024/04/06 08:11:51;;;;;;;27.00;26.00;;;21.80;76.20;;;;;;5054037;28;20208;-72
2024/04/06 08:14:17;;;;;;;24.70;23.80;;;21.80;76.00;;;;;;5062538;28;20468;-72
2024/04/06 08:16:45;;;;;;;29.17;27.87;;;21.80;76.50;;;;;;5061811;28;20217;-71
2024/04/06 08:19:12;;;;;;;27.83;26.30;;;21.80;75.80;;;;;;5063070;28;20451;-67
2024/04/06 08:21:37;;;;;;;25.40;24.40;;;21.90;75.70;;;;;;5065942;28;20442;-66
2024/04/06 08:24:05;;;;;;;25.30;24.40;;;21.80;75.30;;;;;;5068776;28;20887;-67
2024/04/06 08:26:31;;;;;;;24.97;23.97;;;21.90;75.20;;;;;;5063273;28;20206;-68
2024/04/06 08:28:59;;;;;;;28.00;27.00;;;21.90;74.60;;;;;;5060782;28;20787;-71
2024/04/06 08:31:25;;;;;;;30.07;28.83;;;21.90;74.80;;;;;;5062178;28;20205;-69
2024/04/06 08:33:53;;;;;;;26.93;25.83;;;21.90;74.30;;;;;;5061458;28;20464;-69
2024/04/06 08:36:19;;;;;;;27.43;26.33;;;21.90;74.70;;;;;;5064261;28;20679;-70
2024/04/06 08:38:46;;;;;;;27.90;26.70;;;21.90;74.50;;;;;;5064749;28;20467;-70
2024/04/06 08:41:13;;;;;;;28.50;27.30;;;21.90;74.30;;;;;;5062991;28;20205;-68
2024/04/06 08:43:44;;;;;;;27.37;26.17;;;21.90;73.60;;;;;;5057995;28;20476;-69
2024/04/06 08:46:10;;;;;;;25.63;24.73;;;21.90;74.30;;;;;;5061208;28;20786;-68
2024/04/06 08:48:38;;;;;;;26.87;25.87;;;21.90;74.00;;;;;;5064781;28;20434;-67
2024/04/06 08:51:06;;;;;;;26.73;25.47;;;21.90;74.60;;;;;;5063552;28;20204;-68
2024/04/06 08:53:33;;;;;;;25.83;24.73;;;21.90;73.50;;;;;;5059584;28;20464;-68
2024/04/06 08:56:05;;;;;;;28.17;26.97;;;21.90;73.90;;;;;;5058132;28;20440;-68
2024/04/06 08:58:33;;;;;;;27.97;26.87;;;21.90;73.60;;;;;;5064213;28;20520;-70
2024/04/06 09:00:59;;;;;;;28.23;27.13;;;21.90;73.30;;;;;;5064204;28;20446;-68
2024/04/06 09:03:26;;;;;;;26.87;25.87;;;22.00;73.60;;;;;;5055816;28;20459;-67
2024/04/06 09:05:53;;;;;;;27.20;26.00;;;22.00;72.80;;;;;;5064343;28;20440;-67
2024/04/06 09:08:21;;;;;;;25.33;24.43;;;22.10;72.90;;;;;;5061541;28;20967;-68
2024/04/06 09:10:52;;;;;;;25.57;24.57;;;22.10;72.70;;;;;;5059891;28;20850;-69
2024/04/06 09:13:19;;;;;;;26.00;24.90;;;22.10;72.90;;;;;;5063261;28;20449;-66
2024/04/06 09:15:45;;;;;;;27.00;26.00;;;22.10;72.30;;;;;;5060941;28;20476;-67
2024/04/06 09:18:12;;;;;;;22.83;21.92;;;22.10;72.80;;;;;;5044503;28;20464;-66
2024/04/06 09:20:38;;;;;;;26.10;25.10;;;22.10;71.90;;;;;;5064570;28;20208;-66
2024/04/06 09:23:05;;;;;;;27.80;26.70;;;22.20;71.30;;;;;;5061473;28;20822;-74
2024/04/06 09:25:32;;;;;;;30.00;28.80;;;22.30;73.10;;;;;;5064022;28;20225;-68
2024/04/06 09:27:58;;;;;;;28.07;26.97;;;22.20;71.30;;;;;;5063862;28;20440;-69
2024/04/06 09:30:34;;;;;;;27.47;26.37;;;22.20;71.60;;;;;;5057527;28;20442;-66
2024/04/06 09:33:03;;;;;;;26.70;25.70;;;22.30;71.50;;;;;;5067831;28;20450;-66
2024/04/06 09:35:30;;;;;;;26.73;25.73;;;22.30;71.00;;;;;;5064865;28;20460;-67
2024/04/06 09:37:57;;;;;;;26.50;25.50;;;22.30;70.30;;;;;;5065954;28;21112;-68
2024/04/06 09:40:24;;;;;;;27.20;26.10;;;22.30;69.40;;;;;;5067580;28;20962;-67
2024/04/06 09:42:52;;;;;;;26.93;25.93;;;22.20;68.80;;;;;;5068633;28;20511;-68
2024/04/06 09:45:19;;;;;;;28.27;27.17;;;22.20;68.70;;;;;;5062117;28;20459;-67
2024/04/06 09:47:46;;;;;;;28.80;27.70;;;22.20;69.20;;;;;;5062924;28;20456;-66
2024/04/06 09:50:14;;;;;;;28.77;27.63;;;22.30;69.30;;;;;;5064389;28;20447;-67
2024/04/06 09:52:40;;;;;;;28.70;27.60;;;22.20;68.90;;;;;;5066497;28;20450;-68
2024/04/06 09:55:06;;;;;;;28.27;27.17;;;22.20;68.40;;;;;;5062472;28;21000;-69
2024/04/06 09:57:35;;;;;;;29.50;28.30;;;22.20;67.60;;;;;;5059825;28;20472;-67
2024/04/06 10:00:04;;;;;;;31.43;30.23;;;22.20;67.00;;;;;;5059289;28;20209;-66
2024/04/06 10:02:33;;;;;;;28.17;26.93;;;22.30;67.00;;;;;;5060055;28;20527;-68
2024/04/06 10:05:00;;;;;;;27.50;26.50;;;22.30;67.20;;;;;;5060111;28;21148;-67
2024/04/06 10:07:28;;;;;;;31.13;29.87;;;22.40;66.10;;;;;;5051796;28;20836;-68
2024/04/06 10:10:01;;;;;;;30.03;28.63;;;22.40;66.70;;;;;;5056525;28;20939;-68
2024/04/06 10:12:38;;;;;;;26.63;25.63;;;22.40;65.60;;;;;;5061690;28;20861;-68
2024/04/06 10:15:09;;;;;;;26.90;25.83;;;22.30;64.70;;;;;;5060762;28;20860;-69
2024/04/06 10:17:43;;;;;;;29.20;27.83;;;22.30;63.90;;;;;;5063525;28;20841;-71
2024/04/06 10:20:10;;;;;;;28.70;27.50;;;22.30;63.10;;;;;;5060039;28;20444;-69
2024/04/06 10:22:45;;;;;;;27.50;26.50;;;22.30;63.10;;;;;;5063067;28;20943;-69
2024/04/06 10:25:11;;;;;;;28.20;27.00;;;22.30;63.30;;;;;;5061670;28;20829;-70
2024/04/06 10:27:41;;;;;;;30.50;29.30;;;22.40;62.90;;;;;;5059942;28;20436;-68
2024/04/06 10:30:08;;;;;;;26.80;25.80;;;22.40;62.10;;;;;;5059234;28;20883;-76
2024/04/06 10:32:35;;;;;;;27.47;26.37;;;22.40;61.10;;;;;;5063012;28;20436;-70
2024/04/06 10:35:02;;;;;;;25.30;24.30;;;22.40;61.60;;;;;;5062614;28;20512;-64
2024/04/06 10:37:28;;;;;;;27.30;26.20;;;22.50;62.00;;;;;;5060990;28;20213;-69
2024/04/06 10:39:56;;;;;;;27.20;26.10;;;22.50;62.00;;;;;;5058595;28;20791;-69
2024/04/06 10:42:26;;;;;;;25.00;24.10;;;22.50;62.10;;;;;;5052554;28;20864;-64
2024/04/06 10:44:52;;;;;;;25.80;24.90;;;22.50;63.30;;;;;;5059380;28;20971;-65
2024/04/06 10:47:21;;;;;;;25.60;24.70;;;22.50;62.80;;;;;;5061555;28;20494;-64
2024/04/06 10:49:52;;;;;;;28.10;27.10;;;22.50;62.90;;;;;;5062653;28;20942;-64
2024/04/06 10:52:20;;;;;;;26.63;25.47;;;22.60;62.50;;;;;;5055778;28;20445;-64
2024/04/06 10:54:46;;;;;;;26.07;25.07;;;22.60;61.70;;;;;;5062529;28;20849;-64
2024/04/06 10:57:14;;;;;;;25.93;24.93;;;22.60;61.10;;;;;;5061812;28;20907;-63
2024/04/06 10:59:40;;;;;;;26.60;25.40;;;22.60;61.10;;;;;;5059030;28;20515;-65
2024/04/06 11:02:07;;;;;;;27.40;26.30;;;22.60;60.70;;;;;;5058915;28;20803;-67
2024/04/06 11:04:39;;;;;;;27.47;26.37;;;22.60;60.90;;;;;;5059105;28;20487;-67
2024/04/06 11:07:06;;;;;;;23.02;22.20;;;22.60;61.10;;;;;;5055176;28;20486;-64
2024/04/06 11:09:32;;;;;;;28.50;27.10;;;22.60;62.50;;;;;;5062184;28;20197;-64
2024/04/06 11:11:59;;;;;;;27.53;26.53;;;22.70;61.90;;;;;;5062664;28;20464;-63
2024/04/06 11:14:25;;;;;;;26.37;25.20;;;22.70;61.50;;;;;;5058619;28;20487;-64
2024/04/06 11:16:53;;;;;;;26.43;25.10;;;22.70;61.50;;;;;;5062695;28;20803;-70
2024/04/06 11:19:20;;;;;;;25.97;24.87;;;22.70;62.20;;;;;;5053016;28;20566;-70
2024/04/06 11:21:48;;;;;;;25.87;24.70;;;22.60;62.60;;;;;;5066845;28;20474;-70
2024/04/06 11:24:14;;;;;;;26.80;25.70;;;22.60;63.00;;;;;;5065488;28;21051;-70
2024/04/06 11:26:41;;;;;;;26.47;25.37;;;22.50;63.10;;;;;;5063405;28;20439;-70
2024/04/06 11:29:10;;;;;;;25.87;24.77;;;22.50;63.30;;;;;;5063112;28;20221;-70
2024/04/06 11:31:37;;;;;;;25.83;24.83;;;22.40;63.50;;;;;;5066100;28;20805;-70
2024/04/06 11:34:03;;;;;;;25.80;24.70;;;22.40;63.60;;;;;;5066429;28;20554;-70
2024/04/06 11:36:30;;;;;;;26.07;24.97;;;22.40;63.70;;;;;;5062961;28;20501;-70
2024/04/06 11:38:59;;;;;;;25.03;24.03;;;22.30;63.80;;;;;;5062847;28;20480;-70
2024/04/06 11:41:25;;;;;;;23.90;22.97;;;22.30;63.90;;;;;;5065326;28;20539;-70
2024/04/06 11:43:51;;;;;;;24.90;23.70;;;22.30;64.10;;;;;;5066594;28;20511;-70
2024/04/06 11:46:18;;;;;;;25.93;24.93;;;22.30;64.20;;;;;;5064659;28;20443;-70
2024/04/06 11:48:44;;;;;;;24.77;23.80;;;22.20;64.20;;;;;;5062814;28;20443;-70
2024/04/06 11:51:11;;;;;;;26.30;25.00;;;22.30;64.50;;;;;;5062708;28;20441;-70
2024/04/06 11:53:38;;;;;;;24.47;23.50;;;22.20;64.60;;;;;;5066193;28;20266;-70
2024/04/06 11:56:06;;;;;;;24.50;23.60;;;22.30;64.70;;;;;;5066504;28;20452;-70
2024/04/06 11:58:32;;;;;;;25.37;24.47;;;22.20;64.80;;;;;;5054724;28;20476;-70
2024/04/06 12:00:59;;;;;;;25.07;23.90;;;22.20;64.90;;;;;;5062702;28;20444;-70
2024/04/06 12:03:26;;;;;;;25.20;24.03;;;22.20;65.00;;;;;;5065189;28;20822;-71
2024/04/06 12:05:53;;;;;;;24.73;23.83;;;22.30;65.10;;;;;;5066143;28;20447;-70
2024/04/06 12:08:19;;;;;;;25.23;24.33;;;22.20;65.20;;;;;;5064194;28;20198;-70
2024/04/06 12:10:45;;;;;;;25.77;24.87;;;22.20;65.20;;;;;;5062442;28;20443;-70
2024/04/06 12:13:12;;;;;;;25.40;24.40;;;22.20;65.20;;;;;;5062912;28;20213;-70
2024/04/06 12:15:40;;;;;;;25.50;24.60;;;22.20;65.30;;;;;;5066025;28;20443;-70
2024/04/06 12:18:08;;;;;;;26.77;25.67;;;22.20;65.30;;;;;;5065947;28;20478;-70
2024/04/06 12:20:35;;;;;;;25.90;24.90;;;22.20;65.50;;;;;;5054079;28;20869;-71
2024/04/06 12:23:01;;;;;;;25.77;24.83;;;22.20;65.60;;;;;;5062595;28;20456;-70
2024/04/06 12:25:28;;;;;;;26.47;25.43;;;22.20;65.70;;;;;;5064713;28;20464;-70